sensor_id;sensor_type;location;lat;lon;timestamp;P1;durP1;ratioP1;P2;durP2;ratioP2
36379;SDS011;22411;53.016;18.632;2023-04-15T00:01:35;10.30;;;7.93;;
36379;SDS011;22411;53.016;18.632;2023-04-15T00:04:01;10.73;;;9.07;;
36379;SDS011;22411;53.016;18.632;2023-04-15T00:06:28;11.27;;;8.57;;
36379;SDS011;22411;53.016;18.632;2023-04-15T00:08:54;10.57;;;9.48;;
36379;SDS011;22411;53.016;18.632;2023-04-15T00:11:20;12.15;;;9.43;;
36379;SDS011;22411;53.016;18.632;2023-04-15T00:13:46;15.18;;;9.55;;
36379;SDS011;22411;53.016;18.632;2023-04-15T00:16:13;11.68;;;10.10;;
36379;SDS011;22411;53.016;18.632;2023-04-15T00:18:39;10.13;;;9.02;;
36379;SDS011;22411;53.016;18.632;2023-04-15T00:21:05;9.98;;;8.98;;
36379;SDS011;22411;53.016;18.632;2023-04-15T00:23:31;10.80;;;9.50;;
36379;SDS011;22411;53.016;18.632;2023-04-15T00:25:57;14.13;;;10.13;;
36379;SDS011;22411;53.016;18.632;2023-04-15T00:28:23;11.25;;;9.15;;
36379;SDS011;22411;53.016;18.632;2023-04-15T00:30:51;13.30;;;9.68;;
36379;SDS011;22411;53.016;18.632;2023-04-15T00:33:17;12.98;;;10.00;;
36379;SDS011;22411;53.016;18.632;2023-04-15T00:35:43;11.73;;;9.60;;
36379;SDS011;22411;53.016;18.632;2023-04-15T00:38:10;12.77;;;9.60;;
36379;SDS011;22411;53.016;18.632;2023-04-15T00:40:36;11.50;;;9.52;;
36379;SDS011;22411;53.016;18.632;2023-04-15T00:43:02;10.77;;;9.05;;
36379;SDS011;22411;53.016;18.632;2023-04-15T00:45:29;11.80;;;9.02;;
36379;SDS011;22411;53.016;18.632;2023-04-15T00:47:55;11.25;;;9.73;;
36379;SDS011;22411;53.016;18.632;2023-04-15T00:50:21;10.25;;;8.68;;
36379;SDS011;22411;53.016;18.632;2023-04-15T00:52:47;12.90;;;9.65;;
36379;SDS011;22411;53.016;18.632;2023-04-15T00:55:15;10.85;;;9.70;;
36379;SDS011;22411;53.016;18.632;2023-04-15T00:57:42;9.52;;;8.50;;
36379;SDS011;22411;53.016;18.632;2023-04-15T01:00:09;12.05;;;9.50;;
36379;SDS011;22411;53.016;18.632;2023-04-15T01:02:36;10.35;;;9.05;;
36379;SDS011;22411;53.016;18.632;2023-04-15T01:05:04;10.85;;;9.07;;
36379;SDS011;22411;53.016;18.632;2023-04-15T01:07:30;11.98;;;9.40;;
36379;SDS011;22411;53.016;18.632;2023-04-15T01:09:57;9.57;;;7.95;;
36379;SDS011;22411;53.016;18.632;2023-04-15T01:12:24;11.85;;;8.75;;
36379;SDS011;22411;53.016;18.632;2023-04-15T01:14:53;10.07;;;8.40;;
36379;SDS011;22411;53.016;18.632;2023-04-15T01:17:20;12.38;;;9.02;;
36379;SDS011;22411;53.016;18.632;2023-04-15T01:19:47;11.77;;;9.10;;
36379;SDS011;22411;53.016;18.632;2023-04-15T01:22:13;12.68;;;9.85;;
36379;SDS011;22411;53.016;18.632;2023-04-15T01:24:41;12.00;;;9.55;;
36379;SDS011;22411;53.016;18.632;2023-04-15T01:27:14;11.38;;;9.32;;
36379;SDS011;22411;53.016;18.632;2023-04-15T01:29:40;11.52;;;9.20;;
36379;SDS011;22411;53.016;18.632;2023-04-15T01:32:07;11.00;;;9.02;;
36379;SDS011;22411;53.016;18.632;2023-04-15T01:34:34;10.32;;;9.23;;
36379;SDS011;22411;53.016;18.632;2023-04-15T01:36:59;10.88;;;8.88;;
36379;SDS011;22411;53.016;18.632;2023-04-15T01:39:26;11.35;;;9.05;;
36379;SDS011;22411;53.016;18.632;2023-04-15T01:41:52;11.45;;;9.25;;
36379;SDS011;22411;53.016;18.632;2023-04-15T01:44:18;12.80;;;10.30;;
36379;SDS011;22411;53.016;18.632;2023-04-15T01:46:44;9.57;;;8.40;;
36379;SDS011;22411;53.016;18.632;2023-04-15T01:49:11;10.20;;;8.45;;
36379;SDS011;22411;53.016;18.632;2023-04-15T01:51:37;10.35;;;8.43;;
36379;SDS011;22411;53.016;18.632;2023-04-15T01:54:04;10.75;;;9.65;;
36379;SDS011;22411;53.016;18.632;2023-04-15T01:56:29;11.80;;;9.00;;
36379;SDS011;22411;53.016;18.632;2023-04-15T01:58:56;10.10;;;8.02;;
36379;SDS011;22411;53.016;18.632;2023-04-15T02:01:22;11.15;;;9.45;;
36379;SDS011;22411;53.016;18.632;2023-04-15T02:03:48;10.30;;;8.25;;
36379;SDS011;22411;53.016;18.632;2023-04-15T02:06:14;12.05;;;9.65;;
36379;SDS011;22411;53.016;18.632;2023-04-15T02:08:41;10.20;;;8.52;;
36379;SDS011;22411;53.016;18.632;2023-04-15T02:11:07;9.15;;;8.10;;
36379;SDS011;22411;53.016;18.632;2023-04-15T02:13:34;9.55;;;8.57;;
36379;SDS011;22411;53.016;18.632;2023-04-15T02:16:01;11.18;;;8.63;;
36379;SDS011;22411;53.016;18.632;2023-04-15T02:18:29;10.15;;;8.60;;
36379;SDS011;22411;53.016;18.632;2023-04-15T02:20:54;13.43;;;9.93;;
36379;SDS011;22411;53.016;18.632;2023-04-15T02:23:23;10.32;;;8.98;;
36379;SDS011;22411;53.016;18.632;2023-04-15T02:25:49;9.05;;;8.13;;
36379;SDS011;22411;53.016;18.632;2023-04-15T02:28:16;12.05;;;9.60;;
36379;SDS011;22411;53.016;18.632;2023-04-15T02:30:41;10.30;;;8.73;;
36379;SDS011;22411;53.016;18.632;2023-04-15T02:33:08;11.70;;;9.40;;
36379;SDS011;22411;53.016;18.632;2023-04-15T02:35:34;10.57;;;9.02;;
36379;SDS011;22411;53.016;18.632;2023-04-15T02:38:04;13.68;;;9.10;;
36379;SDS011;22411;53.016;18.632;2023-04-15T02:40:30;11.18;;;9.52;;
36379;SDS011;22411;53.016;18.632;2023-04-15T02:42:57;10.65;;;9.55;;
36379;SDS011;22411;53.016;18.632;2023-04-15T02:45:22;8.93;;;8.02;;
36379;SDS011;22411;53.016;18.632;2023-04-15T02:47:52;10.45;;;9.35;;
36379;SDS011;22411;53.016;18.632;2023-04-15T02:50:18;10.35;;;8.50;;
36379;SDS011;22411;53.016;18.632;2023-04-15T02:52:44;11.93;;;9.18;;
36379;SDS011;22411;53.016;18.632;2023-04-15T02:55:11;10.95;;;9.48;;
36379;SDS011;22411;53.016;18.632;2023-04-15T02:57:38;9.73;;;8.70;;
36379;SDS011;22411;53.016;18.632;2023-04-15T03:00:05;10.05;;;8.95;;
36379;SDS011;22411;53.016;18.632;2023-04-15T03:02:35;12.23;;;9.68;;
36379;SDS011;22411;53.016;18.632;2023-04-15T03:05:01;10.00;;;8.93;;
36379;SDS011;22411;53.016;18.632;2023-04-15T03:07:28;9.25;;;8.23;;
36379;SDS011;22411;53.016;18.632;2023-04-15T03:09:54;10.82;;;9.05;;
36379;SDS011;22411;53.016;18.632;2023-04-15T03:12:20;11.98;;;8.60;;
36379;SDS011;22411;53.016;18.632;2023-04-15T03:14:46;11.55;;;9.13;;
36379;SDS011;22411;53.016;18.632;2023-04-15T03:17:13;10.40;;;9.30;;
36379;SDS011;22411;53.016;18.632;2023-04-15T03:19:39;9.73;;;8.60;;
36379;SDS011;22411;53.016;18.632;2023-04-15T03:22:05;9.38;;;8.15;;
36379;SDS011;22411;53.016;18.632;2023-04-15T03:24:31;9.48;;;8.10;;
36379;SDS011;22411;53.016;18.632;2023-04-15T03:26:58;10.93;;;8.75;;
36379;SDS011;22411;53.016;18.632;2023-04-15T03:29:24;11.43;;;8.80;;
36379;SDS011;22411;53.016;18.632;2023-04-15T03:31:51;10.05;;;8.63;;
36379;SDS011;22411;53.016;18.632;2023-04-15T03:34:16;9.63;;;7.38;;
36379;SDS011;22411;53.016;18.632;2023-04-15T03:36:43;9.02;;;8.13;;
36379;SDS011;22411;53.016;18.632;2023-04-15T03:39:09;8.82;;;7.90;;
36379;SDS011;22411;53.016;18.632;2023-04-15T03:41:35;10.00;;;8.95;;
36379;SDS011;22411;53.016;18.632;2023-04-15T03:44:01;8.90;;;8.00;;
36379;SDS011;22411;53.016;18.632;2023-04-15T03:46:34;10.07;;;7.50;;
36379;SDS011;22411;53.016;18.632;2023-04-15T03:49:00;10.68;;;7.32;;
36379;SDS011;22411;53.016;18.632;2023-04-15T03:51:27;9.75;;;8.10;;
36379;SDS011;22411;53.016;18.632;2023-04-15T03:53:52;8.55;;;7.65;;
36379;SDS011;22411;53.016;18.632;2023-04-15T03:56:19;9.07;;;7.82;;
36379;SDS011;22411;53.016;18.632;2023-04-15T03:58:44;9.35;;;7.65;;
36379;SDS011;22411;53.016;18.632;2023-04-15T04:01:11;8.18;;;7.38;;
36379;SDS011;22411;53.016;18.632;2023-04-15T04:03:37;9.13;;;7.60;;
36379;SDS011;22411;53.016;18.632;2023-04-15T04:06:03;8.48;;;7.07;;
36379;SDS011;22411;53.016;18.632;2023-04-15T04:08:29;8.70;;;7.78;;
36379;SDS011;22411;53.016;18.632;2023-04-15T04:10:55;10.43;;;7.45;;
36379;SDS011;22411;53.016;18.632;2023-04-15T04:13:21;9.70;;;8.02;;
36379;SDS011;22411;53.016;18.632;2023-04-15T04:15:47;8.80;;;7.90;;
36379;SDS011;22411;53.016;18.632;2023-04-15T04:18:14;9.40;;;7.95;;
36379;SDS011;22411;53.016;18.632;2023-04-15T04:20:40;8.50;;;7.60;;
36379;SDS011;22411;53.016;18.632;2023-04-15T04:23:06;9.02;;;7.38;;
36379;SDS011;22411;53.016;18.632;2023-04-15T04:25:32;9.85;;;7.43;;
36379;SDS011;22411;53.016;18.632;2023-04-15T04:27:58;8.43;;;7.35;;
36379;SDS011;22411;53.016;18.632;2023-04-15T04:30:25;9.52;;;7.47;;
36379;SDS011;22411;53.016;18.632;2023-04-15T04:32:51;7.88;;;7.07;;
36379;SDS011;22411;53.016;18.632;2023-04-15T04:35:17;8.75;;;7.57;;
36379;SDS011;22411;53.016;18.632;2023-04-15T04:37:43;9.43;;;8.10;;
36379;SDS011;22411;53.016;18.632;2023-04-15T04:40:10;8.98;;;7.72;;
36379;SDS011;22411;53.016;18.632;2023-04-15T04:42:36;10.13;;;8.15;;
36379;SDS011;22411;53.016;18.632;2023-04-15T04:45:03;9.57;;;7.90;;
36379;SDS011;22411;53.016;18.632;2023-04-15T04:47:30;15.55;;;7.85;;
36379;SDS011;22411;53.016;18.632;2023-04-15T04:49:56;11.38;;;7.90;;
36379;SDS011;22411;53.016;18.632;2023-04-15T04:52:23;10.02;;;8.13;;
36379;SDS011;22411;53.016;18.632;2023-04-15T04:54:49;8.85;;;7.95;;
36379;SDS011;22411;53.016;18.632;2023-04-15T04:57:15;10.13;;;8.38;;
36379;SDS011;22411;53.016;18.632;2023-04-15T04:59:41;12.50;;;8.02;;
36379;SDS011;22411;53.016;18.632;2023-04-15T05:02:07;11.70;;;9.18;;
36379;SDS011;22411;53.016;18.632;2023-04-15T05:04:33;8.88;;;7.97;;
36379;SDS011;22411;53.016;18.632;2023-04-15T05:06:59;12.35;;;9.25;;
36379;SDS011;22411;53.016;18.632;2023-04-15T05:09:25;12.18;;;9.18;;
36379;SDS011;22411;53.016;18.632;2023-04-15T05:11:52;9.93;;;8.77;;
36379;SDS011;22411;53.016;18.632;2023-04-15T05:14:19;11.00;;;9.20;;
36379;SDS011;22411;53.016;18.632;2023-04-15T05:16:45;11.65;;;9.98;;
36379;SDS011;22411;53.016;18.632;2023-04-15T05:19:11;11.05;;;9.93;;
36379;SDS011;22411;53.016;18.632;2023-04-15T05:21:36;10.73;;;9.23;;
36379;SDS011;22411;53.016;18.632;2023-04-15T05:24:03;12.02;;;10.75;;
36379;SDS011;22411;53.016;18.632;2023-04-15T05:26:30;15.75;;;11.63;;
36379;SDS011;22411;53.016;18.632;2023-04-15T05:28:57;13.63;;;11.00;;
36379;SDS011;22411;53.016;18.632;2023-04-15T05:31:23;16.83;;;11.02;;
36379;SDS011;22411;53.016;18.632;2023-04-15T05:33:49;17.20;;;12.32;;
36379;SDS011;22411;53.016;18.632;2023-04-15T05:36:16;16.25;;;11.98;;
36379;SDS011;22411;53.016;18.632;2023-04-15T05:38:42;16.33;;;13.23;;
36379;SDS011;22411;53.016;18.632;2023-04-15T05:41:08;16.00;;;13.38;;
36379;SDS011;22411;53.016;18.632;2023-04-15T05:43:34;18.55;;;14.05;;
36379;SDS011;22411;53.016;18.632;2023-04-15T05:46:00;16.27;;;13.38;;
36379;SDS011;22411;53.016;18.632;2023-04-15T05:48:26;19.67;;;14.30;;
36379;SDS011;22411;53.016;18.632;2023-04-15T05:50:53;15.55;;;13.20;;
36379;SDS011;22411;53.016;18.632;2023-04-15T05:53:19;16.90;;;13.48;;
36379;SDS011;22411;53.016;18.632;2023-04-15T05:55:45;17.73;;;14.00;;
36379;SDS011;22411;53.016;18.632;2023-04-15T05:58:11;14.45;;;12.80;;
36379;SDS011;22411;53.016;18.632;2023-04-15T06:00:37;15.88;;;13.57;;
36379;SDS011;22411;53.016;18.632;2023-04-15T06:03:04;16.00;;;13.60;;
36379;SDS011;22411;53.016;18.632;2023-04-15T06:05:31;15.88;;;12.88;;
36379;SDS011;22411;53.016;18.632;2023-04-15T06:08:00;17.05;;;14.18;;
36379;SDS011;22411;53.016;18.632;2023-04-15T06:10:26;17.88;;;13.02;;
36379;SDS011;22411;53.016;18.632;2023-04-15T06:12:52;16.48;;;14.10;;
36379;SDS011;22411;53.016;18.632;2023-04-15T06:15:18;14.60;;;13.13;;
36379;SDS011;22411;53.016;18.632;2023-04-15T06:17:45;17.70;;;14.25;;
36379;SDS011;22411;53.016;18.632;2023-04-15T06:20:11;18.80;;;13.38;;
36379;SDS011;22411;53.016;18.632;2023-04-15T06:22:38;14.73;;;12.98;;
36379;SDS011;22411;53.016;18.632;2023-04-15T06:25:04;17.02;;;13.63;;
36379;SDS011;22411;53.016;18.632;2023-04-15T06:27:33;22.05;;;13.85;;
36379;SDS011;22411;53.016;18.632;2023-04-15T06:30:00;16.02;;;13.93;;
36379;SDS011;22411;53.016;18.632;2023-04-15T06:32:27;14.65;;;12.23;;
36379;SDS011;22411;53.016;18.632;2023-04-15T06:34:54;14.10;;;12.23;;
36379;SDS011;22411;53.016;18.632;2023-04-15T06:37:25;14.13;;;10.98;;
36379;SDS011;22411;53.016;18.632;2023-04-15T06:39:51;13.48;;;11.93;;
36379;SDS011;22411;53.016;18.632;2023-04-15T06:42:18;18.40;;;11.80;;
36379;SDS011;22411;53.016;18.632;2023-04-15T06:44:44;15.02;;;12.35;;
36379;SDS011;22411;53.016;18.632;2023-04-15T06:47:11;15.38;;;13.27;;
36379;SDS011;22411;53.016;18.632;2023-04-15T06:49:39;15.70;;;13.38;;
36379;SDS011;22411;53.016;18.632;2023-04-15T06:52:06;17.17;;;13.15;;
36379;SDS011;22411;53.016;18.632;2023-04-15T06:54:33;16.65;;;12.80;;
36379;SDS011;22411;53.016;18.632;2023-04-15T06:56:59;15.95;;;12.20;;
36379;SDS011;22411;53.016;18.632;2023-04-15T06:59:27;14.27;;;12.52;;
36379;SDS011;22411;53.016;18.632;2023-04-15T07:01:57;16.85;;;13.93;;
36379;SDS011;22411;53.016;18.632;2023-04-15T07:04:23;43.28;;;34.42;;
36379;SDS011;22411;53.016;18.632;2023-04-15T07:06:52;19.35;;;17.23;;
36379;SDS011;22411;53.016;18.632;2023-04-15T07:09:20;30.92;;;25.45;;
36379;SDS011;22411;53.016;18.632;2023-04-15T07:11:54;16.23;;;14.05;;
36379;SDS011;22411;53.016;18.632;2023-04-15T07:14:20;19.45;;;16.23;;
36379;SDS011;22411;53.016;18.632;2023-04-15T07:16:48;14.85;;;13.25;;
36379;SDS011;22411;53.016;18.632;2023-04-15T07:19:14;18.13;;;15.60;;
36379;SDS011;22411;53.016;18.632;2023-04-15T07:21:40;16.58;;;14.43;;
36379;SDS011;22411;53.016;18.632;2023-04-15T07:24:07;16.67;;;13.82;;
36379;SDS011;22411;53.016;18.632;2023-04-15T07:26:33;15.43;;;13.90;;
36379;SDS011;22411;53.016;18.632;2023-04-15T07:28:59;18.55;;;16.65;;
36379;SDS011;22411;53.016;18.632;2023-04-15T07:31:27;17.63;;;13.90;;
36379;SDS011;22411;53.016;18.632;2023-04-15T07:33:53;18.50;;;16.50;;
36379;SDS011;22411;53.016;18.632;2023-04-15T07:36:19;17.90;;;16.00;;
36379;SDS011;22411;53.016;18.632;2023-04-15T07:38:46;23.35;;;21.08;;
36379;SDS011;22411;53.016;18.632;2023-04-15T07:41:12;18.15;;;16.25;;
36379;SDS011;22411;53.016;18.632;2023-04-15T07:43:38;18.27;;;15.73;;
36379;SDS011;22411;53.016;18.632;2023-04-15T07:46:05;19.90;;;16.73;;
36379;SDS011;22411;53.016;18.632;2023-04-15T07:48:37;19.52;;;17.35;;
36379;SDS011;22411;53.016;18.632;2023-04-15T07:51:08;15.55;;;13.45;;
36379;SDS011;22411;53.016;18.632;2023-04-15T07:53:37;17.33;;;15.50;;
36379;SDS011;22411;53.016;18.632;2023-04-15T07:56:07;19.52;;;17.52;;
36379;SDS011;22411;53.016;18.632;2023-04-15T07:58:37;32.75;;;29.42;;
36379;SDS011;22411;53.016;18.632;2023-04-15T08:01:04;31.13;;;27.83;;
36379;SDS011;22411;53.016;18.632;2023-04-15T08:03:33;21.88;;;17.40;;
36379;SDS011;22411;53.016;18.632;2023-04-15T08:06:00;17.58;;;15.25;;
36379;SDS011;22411;53.016;18.632;2023-04-15T08:08:31;27.67;;;21.50;;
36379;SDS011;22411;53.016;18.632;2023-04-15T08:11:05;19.40;;;14.32;;
36379;SDS011;22411;53.016;18.632;2023-04-15T08:13:31;25.00;;;22.42;;
36379;SDS011;22411;53.016;18.632;2023-04-15T08:19:08;23.58;;;20.45;;
36379;SDS011;22411;53.016;18.632;2023-04-15T08:21:35;25.00;;;19.02;;
36379;SDS011;22411;53.016;18.632;2023-04-15T08:24:01;26.58;;;20.88;;
36379;SDS011;22411;53.016;18.632;2023-04-15T08:26:27;24.60;;;20.27;;
36379;SDS011;22411;53.016;18.632;2023-04-15T08:28:53;21.52;;;19.10;;
36379;SDS011;22411;53.016;18.632;2023-04-15T08:31:20;20.75;;;18.75;;
36379;SDS011;22411;53.016;18.632;2023-04-15T08:33:46;19.20;;;17.20;;
36379;SDS011;22411;53.016;18.632;2023-04-15T08:36:13;21.02;;;16.50;;
36379;SDS011;22411;53.016;18.632;2023-04-15T08:38:39;36.67;;;31.95;;
36379;SDS011;22411;53.016;18.632;2023-04-15T08:41:14;17.77;;;14.70;;
36379;SDS011;22411;53.016;18.632;2023-04-15T08:43:48;31.17;;;27.02;;
36379;SDS011;22411;53.016;18.632;2023-04-15T08:46:18;29.02;;;24.50;;
36379;SDS011;22411;53.016;18.632;2023-04-15T08:48:46;39.53;;;35.42;;
36379;SDS011;22411;53.016;18.632;2023-04-15T08:51:13;48.65;;;42.20;;
36379;SDS011;22411;53.016;18.632;2023-04-15T08:53:45;43.83;;;39.28;;
36379;SDS011;22411;53.016;18.632;2023-04-15T08:56:14;39.25;;;31.92;;
36379;SDS011;22411;53.016;18.632;2023-04-15T08:58:44;31.92;;;26.25;;
36379;SDS011;22411;53.016;18.632;2023-04-15T09:01:13;30.55;;;21.65;;
36379;SDS011;22411;53.016;18.632;2023-04-15T09:03:40;68.78;;;50.33;;
36379;SDS011;22411;53.016;18.632;2023-04-15T09:06:07;51.53;;;36.50;;
36379;SDS011;22411;53.016;18.632;2023-04-15T09:08:33;120.50;;;83.45;;
36379;SDS011;22411;53.016;18.632;2023-04-15T09:11:03;96.95;;;64.45;;
36379;SDS011;22411;53.016;18.632;2023-04-15T09:13:29;67.53;;;44.78;;
36379;SDS011;22411;53.016;18.632;2023-04-15T09:16:02;55.70;;;39.60;;
36379;SDS011;22411;53.016;18.632;2023-04-15T09:18:38;78.85;;;45.72;;
36379;SDS011;22411;53.016;18.632;2023-04-15T09:21:05;47.63;;;27.77;;
36379;SDS011;22411;53.016;18.632;2023-04-15T09:23:34;36.75;;;20.42;;
36379;SDS011;22411;53.016;18.632;2023-04-15T09:26:01;34.72;;;19.15;;
36379;SDS011;22411;53.016;18.632;2023-04-15T09:28:28;24.25;;;15.90;;
36379;SDS011;22411;53.016;18.632;2023-04-15T09:30:58;38.38;;;23.60;;
36379;SDS011;22411;53.016;18.632;2023-04-15T09:33:28;113.97;;;78.63;;
36379;SDS011;22411;53.016;18.632;2023-04-15T09:35:58;218.18;;;135.50;;
36379;SDS011;22411;53.016;18.632;2023-04-15T09:38:34;32.55;;;23.17;;
36379;SDS011;22411;53.016;18.632;2023-04-15T09:41:16;31.90;;;22.63;;
36379;SDS011;22411;53.016;18.632;2023-04-15T09:43:49;32.58;;;26.60;;
36379;SDS011;22411;53.016;18.632;2023-04-15T09:46:15;71.78;;;51.70;;
36379;SDS011;22411;53.016;18.632;2023-04-15T09:48:41;59.53;;;48.45;;
36379;SDS011;22411;53.016;18.632;2023-04-15T09:51:11;31.30;;;24.60;;
36379;SDS011;22411;53.016;18.632;2023-04-15T09:53:38;32.00;;;24.10;;
36379;SDS011;22411;53.016;18.632;2023-04-15T09:56:05;24.10;;;19.15;;
36379;SDS011;22411;53.016;18.632;2023-04-15T09:58:35;33.33;;;24.77;;
36379;SDS011;22411;53.016;18.632;2023-04-15T10:01:08;46.65;;;33.17;;
36379;SDS011;22411;53.016;18.632;2023-04-15T10:03:36;47.42;;;33.65;;
36379;SDS011;22411;53.016;18.632;2023-04-15T10:06:06;50.90;;;37.25;;
36379;SDS011;22411;53.016;18.632;2023-04-15T10:08:33;67.35;;;53.42;;
36379;SDS011;22411;53.016;18.632;2023-04-15T10:11:00;69.28;;;51.95;;
36379;SDS011;22411;53.016;18.632;2023-04-15T10:13:28;62.17;;;49.75;;
36379;SDS011;22411;53.016;18.632;2023-04-15T10:15:59;32.97;;;26.60;;
36379;SDS011;22411;53.016;18.632;2023-04-15T10:18:30;147.65;;;100.20;;
36379;SDS011;22411;53.016;18.632;2023-04-15T10:21:05;82.82;;;53.97;;
36379;SDS011;22411;53.016;18.632;2023-04-15T10:23:39;333.40;;;195.25;;
36379;SDS011;22411;53.016;18.632;2023-04-15T10:26:13;153.85;;;98.57;;
36379;SDS011;22411;53.016;18.632;2023-04-15T10:28:49;169.95;;;107.05;;
36379;SDS011;22411;53.016;18.632;2023-04-15T10:31:18;180.82;;;113.32;;
36379;SDS011;22411;53.016;18.632;2023-04-15T10:33:45;77.40;;;57.03;;
36379;SDS011;22411;53.016;18.632;2023-04-15T10:36:17;59.97;;;46.38;;
36379;SDS011;22411;53.016;18.632;2023-04-15T10:38:47;49.03;;;41.65;;
36379;SDS011;22411;53.016;18.632;2023-04-15T10:41:15;38.88;;;34.67;;
36379;SDS011;22411;53.016;18.632;2023-04-15T10:46:36;24.65;;;22.10;;
36379;SDS011;22411;53.016;18.632;2023-04-15T10:49:13;35.40;;;29.67;;
36379;SDS011;22411;53.016;18.632;2023-04-15T10:51:43;17.40;;;14.80;;
36379;SDS011;22411;53.016;18.632;2023-04-15T10:54:14;23.05;;;19.15;;
36379;SDS011;22411;53.016;18.632;2023-04-15T10:59:32;30.75;;;27.65;;
36379;SDS011;22411;53.016;18.632;2023-04-15T11:02:03;21.92;;;19.58;;
36379;SDS011;22411;53.016;18.632;2023-04-15T11:07:32;35.22;;;31.73;;
36379;SDS011;22411;53.016;18.632;2023-04-15T11:12:47;26.98;;;24.45;;
36379;SDS011;22411;53.016;18.632;2023-04-15T11:17:58;28.65;;;25.73;;
36379;SDS011;22411;53.016;18.632;2023-04-15T11:20:32;16.13;;;14.50;;
36379;SDS011;22411;53.016;18.632;2023-04-15T11:22:59;29.13;;;23.52;;
36379;SDS011;22411;53.016;18.632;2023-04-15T11:32:33;73.10;;;40.63;;
36379;SDS011;22411;53.016;18.632;2023-04-15T11:35:00;49.67;;;31.50;;
36379;SDS011;22411;53.016;18.632;2023-04-15T11:37:27;52.65;;;36.70;;
36379;SDS011;22411;53.016;18.632;2023-04-15T11:39:57;36.72;;;24.63;;
36379;SDS011;22411;53.016;18.632;2023-04-15T11:42:23;42.15;;;29.00;;
36379;SDS011;22411;53.016;18.632;2023-04-15T11:44:54;81.05;;;45.25;;
36379;SDS011;22411;53.016;18.632;2023-04-15T11:47:40;78.32;;;42.10;;
36379;SDS011;22411;53.016;18.632;2023-04-15T11:50:18;21.10;;;15.25;;
36379;SDS011;22411;53.016;18.632;2023-04-15T11:55:24;78.50;;;55.47;;
36379;SDS011;22411;53.016;18.632;2023-04-15T12:00:37;46.65;;;27.77;;
36379;SDS011;22411;53.016;18.632;2023-04-15T12:06:04;29.27;;;24.15;;
36379;SDS011;22411;53.016;18.632;2023-04-15T12:11:34;50.30;;;32.88;;
36379;SDS011;22411;53.016;18.632;2023-04-15T12:14:06;70.13;;;48.08;;
36379;SDS011;22411;53.016;18.632;2023-04-15T12:16:35;31.67;;;23.83;;
36379;SDS011;22411;53.016;18.632;2023-04-15T12:19:04;24.77;;;20.85;;
36379;SDS011;22411;53.016;18.632;2023-04-15T12:21:33;29.02;;;26.00;;
36379;SDS011;22411;53.016;18.632;2023-04-15T12:24:05;18.77;;;16.88;;
36379;SDS011;22411;53.016;18.632;2023-04-15T12:26:34;14.43;;;12.85;;
36379;SDS011;22411;53.016;18.632;2023-04-15T12:31:35;20.93;;;17.90;;
36379;SDS011;22411;53.016;18.632;2023-04-15T12:34:03;15.38;;;13.77;;
36379;SDS011;22411;53.016;18.632;2023-04-15T12:36:33;15.20;;;13.50;;
36379;SDS011;22411;53.016;18.632;2023-04-15T12:39:02;15.40;;;12.65;;
36379;SDS011;22411;53.016;18.632;2023-04-15T12:41:29;25.67;;;22.27;;
36379;SDS011;22411;53.016;18.632;2023-04-15T12:43:55;24.10;;;20.73;;
36379;SDS011;22411;53.016;18.632;2023-04-15T12:46:22;31.75;;;23.20;;
36379;SDS011;22411;53.016;18.632;2023-04-15T12:48:49;30.10;;;21.10;;
36379;SDS011;22411;53.016;18.632;2023-04-15T12:51:16;21.88;;;18.05;;
36379;SDS011;22411;53.016;18.632;2023-04-15T12:53:42;19.73;;;15.95;;
36379;SDS011;22411;53.016;18.632;2023-04-15T12:56:10;17.52;;;15.57;;
36379;SDS011;22411;53.016;18.632;2023-04-15T12:58:36;14.10;;;8.98;;
36379;SDS011;22411;53.016;18.632;2023-04-15T13:01:04;13.63;;;11.30;;
36379;SDS011;22411;53.016;18.632;2023-04-15T13:03:30;11.18;;;9.10;;
36379;SDS011;22411;53.016;18.632;2023-04-15T13:05:58;31.05;;;18.35;;
36379;SDS011;22411;53.016;18.632;2023-04-15T13:08:24;25.17;;;13.60;;
36379;SDS011;22411;53.016;18.632;2023-04-15T13:10:51;13.48;;;10.48;;
36379;SDS011;22411;53.016;18.632;2023-04-15T13:13:18;10.82;;;8.98;;
36379;SDS011;22411;53.016;18.632;2023-04-15T13:15:44;12.80;;;10.07;;
36379;SDS011;22411;53.016;18.632;2023-04-15T13:18:10;13.50;;;9.48;;
36379;SDS011;22411;53.016;18.632;2023-04-15T13:20:38;7.90;;;6.97;;
36379;SDS011;22411;53.016;18.632;2023-04-15T13:23:10;8.52;;;7.25;;
36379;SDS011;22411;53.016;18.632;2023-04-15T13:25:37;12.25;;;7.97;;
36379;SDS011;22411;53.016;18.632;2023-04-15T13:28:03;8.30;;;7.50;;
36379;SDS011;22411;53.016;18.632;2023-04-15T13:30:32;11.25;;;8.05;;
36379;SDS011;22411;53.016;18.632;2023-04-15T13:33:08;11.40;;;9.05;;
36379;SDS011;22411;53.016;18.632;2023-04-15T13:35:37;8.75;;;7.57;;
36379;SDS011;22411;53.016;18.632;2023-04-15T13:38:09;8.05;;;6.80;;
36379;SDS011;22411;53.016;18.632;2023-04-15T13:40:41;7.57;;;6.82;;
36379;SDS011;22411;53.016;18.632;2023-04-15T13:43:11;6.32;;;5.72;;
36379;SDS011;22411;53.016;18.632;2023-04-15T13:45:45;8.70;;;6.68;;
36379;SDS011;22411;53.016;18.632;2023-04-15T13:48:11;7.32;;;5.70;;
36379;SDS011;22411;53.016;18.632;2023-04-15T13:50:38;7.53;;;6.55;;
36379;SDS011;22411;53.016;18.632;2023-04-15T13:53:04;7.03;;;6.30;;
36379;SDS011;22411;53.016;18.632;2023-04-15T13:55:36;9.75;;;7.53;;
36379;SDS011;22411;53.016;18.632;2023-04-15T13:58:07;10.18;;;8.82;;
36379;SDS011;22411;53.016;18.632;2023-04-15T14:00:40;16.70;;;13.23;;
36379;SDS011;22411;53.016;18.632;2023-04-15T14:03:09;34.15;;;23.80;;
36379;SDS011;22411;53.016;18.632;2023-04-15T14:05:37;17.05;;;13.85;;
36379;SDS011;22411;53.016;18.632;2023-04-15T14:08:05;10.77;;;9.57;;
36379;SDS011;22411;53.016;18.632;2023-04-15T14:10:42;9.48;;;7.70;;
36379;SDS011;22411;53.016;18.632;2023-04-15T14:13:24;10.95;;;8.75;;
36379;SDS011;22411;53.016;18.632;2023-04-15T14:16:00;16.35;;;11.55;;
36379;SDS011;22411;53.016;18.632;2023-04-15T14:18:28;13.73;;;9.20;;
36379;SDS011;22411;53.016;18.632;2023-04-15T14:20:55;9.13;;;7.97;;
36379;SDS011;22411;53.016;18.632;2023-04-15T14:23:25;14.20;;;10.57;;
36379;SDS011;22411;53.016;18.632;2023-04-15T14:26:03;6.93;;;6.20;;
36379;SDS011;22411;53.016;18.632;2023-04-15T14:28:32;7.78;;;6.63;;
36379;SDS011;22411;53.016;18.632;2023-04-15T14:31:10;9.90;;;7.50;;
36379;SDS011;22411;53.016;18.632;2023-04-15T14:33:45;9.70;;;7.60;;
36379;SDS011;22411;53.016;18.632;2023-04-15T14:36:17;6.93;;;6.32;;
36379;SDS011;22411;53.016;18.632;2023-04-15T14:38:43;7.97;;;6.80;;
36379;SDS011;22411;53.016;18.632;2023-04-15T14:41:10;9.40;;;8.10;;
36379;SDS011;22411;53.016;18.632;2023-04-15T14:43:37;14.63;;;11.65;;
36379;SDS011;22411;53.016;18.632;2023-04-15T14:46:06;16.30;;;12.65;;
36379;SDS011;22411;53.016;18.632;2023-04-15T14:48:35;10.88;;;9.23;;
36379;SDS011;22411;53.016;18.632;2023-04-15T14:51:02;8.05;;;7.20;;
36379;SDS011;22411;53.016;18.632;2023-04-15T14:53:30;8.68;;;6.93;;
36379;SDS011;22411;53.016;18.632;2023-04-15T14:55:57;7.03;;;6.15;;
36379;SDS011;22411;53.016;18.632;2023-04-15T14:58:25;6.88;;;6.22;;